Main page
METAR-TAF:

METAR-TAF

Airports :

Guilin Liangjiang International Airport

Guilin, China

latitude: 25-20N, longitude: 110-18E, elevation: 166 m

Current weather observation

The report was made 24 minutes ago, at 20:00 UTC
Wind 2 kt from variable directions
Temperature 24°C
Humidity 94%
Pressure 1003 hPa
Visibility: 6000 m

METAR: ZGKL 182000Z VRB01MPS 6000 NSC 24/23 Q1003 NOSIG

Time: 04:24 (20:24 UTC)

Forecast

The report was made 5 hours and 14 minutes ago, at 15:10 UTC
Forecast valid from 18 at 18 UTC to 19 at 18 UTC
Wind 6 kt from the Northeast
Visibility 10 km or more
Scattered clouds at a height of 4000 ft

TAF: ZGKL 181510Z 1818/1918 05003MPS 9999 SCT040 TX35/1908Z TN24/1822Z

Weather observations and forecasts of more than 4000 airports (METAR and TAF reports).

The available stations are represented by yellow and red dots on the map.

Hover mouse over dot to see the name of the station.

Then click to see weather observations and forecasts.

To change the map : click on the green buttons with a black cross to zoom in, on the green button with a dash to zoom out, or on the green arrows for adjacent maps.


METAR-TAF: